CHB6475 ZHCC-ZPJH
Flight info
| Callsign | CHB6475 |
|---|---|
| Flight time | N/A |
| Altitude | 38100 |
| Route | DUDBI W37 DUBAS R343 WHA A581 BIDRU |
| Aircraft | A20N/M-SDE2E3FGHIRWXY/LB1 |
Departure
| Time | 2026-04-23 01:07 |
|---|---|
| Airport | Zhengzhou Xinzheng International Airport (ZHCC) |
Arrival
| Time | N/A |
|---|---|
| Airport | Xishuangbanna Gasa International Airport (ZPJH) |
| Time | Latitude | Longitude | Altitude | Speed | Heading |
|---|---|---|---|---|---|
| 2026-04-23 00:08 | 34.53094 | 113.85389 | 491 ft | 0 kts | 202° |
| 2026-04-23 00:53 | 34.53094 | 113.85390 | 491 ft | 0 kts | 202° |
| 2026-04-23 00:54 | 34.53107 | 113.85396 | 491 ft | 2 kts | 201° |
| 2026-04-23 00:54 | 34.53120 | 113.85405 | 490 ft | 2 kts | 230° |
| 2026-04-23 00:54 | 34.53128 | 113.85421 | 489 ft | 2 kts | 255° |
| 2026-04-23 00:54 | 34.53129 | 113.85439 | 488 ft | 2 kts | 282° |
| 2026-04-23 00:55 | 34.53127 | 113.85448 | 487 ft | 1 kts | 296° |
| 2026-04-23 00:55 | 34.53125 | 113.85453 | 487 ft | 0 kts | 293° |
| 2026-04-23 01:00 | 34.53122 | 113.85460 | 486 ft | 0 kts | 293° |
| 2026-04-23 01:00 | 34.53127 | 113.85445 | 488 ft | 4 kts | 292° |
| 2026-04-23 01:00 | 34.53144 | 113.85396 | 492 ft | 9 kts | 292° |
| 2026-04-23 01:01 | 34.53167 | 113.85326 | 496 ft | 7 kts | 292° |
| 2026-04-23 01:01 | 34.53183 | 113.85278 | 498 ft | 5 kts | 292° |
| 2026-04-23 01:01 | 34.53201 | 113.85226 | 498 ft | 8 kts | 291° |
| 2026-04-23 01:01 | 34.53253 | 113.85206 | 498 ft | 11 kts | 18° |
| 2026-04-23 01:02 | 34.53341 | 113.85236 | 498 ft | 14 kts | 356° |
| 2026-04-23 01:02 | 34.53396 | 113.85146 | 498 ft | 14 kts | 292° |
| 2026-04-23 01:02 | 34.53434 | 113.85036 | 499 ft | 14 kts | 292° |
| 2026-04-23 01:02 | 34.53473 | 113.84918 | 500 ft | 15 kts | 292° |
| 2026-04-23 01:03 | 34.53512 | 113.84805 | 502 ft | 13 kts | 292° |
| 2026-04-23 01:03 | 34.53546 | 113.84707 | 505 ft | 12 kts | 292° |
| 2026-04-23 01:03 | 34.53580 | 113.84605 | 509 ft | 14 kts | 292° |
| 2026-04-23 01:03 | 34.53622 | 113.84479 | 512 ft | 18 kts | 292° |
| 2026-04-23 01:04 | 34.53673 | 113.84328 | 513 ft | 18 kts | 293° |
| 2026-04-23 01:04 | 34.53723 | 113.84183 | 513 ft | 18 kts | 292° |
| 2026-04-23 01:04 | 34.53840 | 113.84014 | 509 ft | 4 kts | 22° |
| 2026-04-23 01:05 | 34.53854 | 113.84021 | 509 ft | 1 kts | 22° |
| 2026-04-23 01:05 | 34.53869 | 113.84029 | 509 ft | 3 kts | 22° |
| 2026-04-23 01:05 | 34.53901 | 113.84044 | 510 ft | 5 kts | 22° |
| 2026-04-23 01:05 | 34.53932 | 113.84071 | 510 ft | 5 kts | 59° |
| 2026-04-23 01:06 | 34.53934 | 113.84114 | 511 ft | 5 kts | 110° |
| 2026-04-23 01:06 | 34.53931 | 113.84125 | 511 ft | 1 kts | 112° |
| 2026-04-23 01:06 | 34.53842 | 113.84384 | 513 ft | 70 kts | 113° |
| 2026-04-23 01:06 | 34.53565 | 113.85194 | 497 ft | 136 kts | 112° |
| 2026-04-23 01:07 | 34.53134 | 113.86442 | 602 ft | 176 kts | 113° |
| 2026-04-23 01:07 | 34.52799 | 113.87465 | 1080 ft | 176 kts | 111° |
| 2026-04-23 01:07 | 34.52409 | 113.88860 | 1801 ft | 177 kts | 115° |
| 2026-04-23 01:07 | 34.51566 | 113.89864 | 2514 ft | 176 kts | 156° |
| 2026-04-23 01:08 | 34.50468 | 113.90446 | 3194 ft | 173 kts | 142° |
| 2026-04-23 01:08 | 34.49804 | 113.91612 | 3749 ft | 175 kts | 103° |
| 2026-04-23 01:08 | 34.49645 | 113.93117 | 4171 ft | 190 kts | 96° |
| 2026-04-23 01:08 | 34.49446 | 113.94776 | 4588 ft | 207 kts | 101° |
| 2026-04-23 01:09 | 34.49101 | 113.96525 | 4963 ft | 227 kts | 104° |
| 2026-04-23 01:09 | 34.48614 | 113.98450 | 5374 ft | 248 kts | 107° |
| 2026-04-23 01:09 | 34.48042 | 114.00472 | 5920 ft | 263 kts | 108° |
| 2026-04-23 01:09 | 34.47418 | 114.02572 | 6725 ft | 267 kts | 108° |
| 2026-04-23 01:10 | 34.46781 | 114.04665 | 7569 ft | 270 kts | 110° |
| 2026-04-23 01:10 | 34.45737 | 114.06580 | 8344 ft | 280 kts | 136° |
| 2026-04-23 01:10 | 34.44016 | 114.07732 | 9107 ft | 291 kts | 162° |
| 2026-04-23 01:10 | 34.41988 | 114.07951 | 9711 ft | 301 kts | 178° |
| 2026-04-23 01:11 | 34.39882 | 114.07903 | 10483 ft | 305 kts | 178° |
| 2026-04-23 01:11 | 34.37720 | 114.07865 | 10951 ft | 319 kts | 178° |
| 2026-04-23 01:11 | 34.35422 | 114.07848 | 11302 ft | 337 kts | 178° |
| 2026-04-23 01:11 | 34.33057 | 114.08032 | 11611 ft | 353 kts | 168° |
| 2026-04-23 01:12 | 34.30642 | 114.08812 | 11913 ft | 367 kts | 156° |
| 2026-04-23 01:12 | 34.28286 | 114.10091 | 12380 ft | 376 kts | 152° |
| 2026-04-23 01:12 | 34.25923 | 114.11484 | 13036 ft | 380 kts | 152° |
| 2026-04-23 01:12 | 34.23525 | 114.12898 | 13704 ft | 384 kts | 153° |
| 2026-04-23 01:13 | 34.21097 | 114.14315 | 14344 ft | 388 kts | 153° |
| 2026-04-23 01:13 | 34.18670 | 114.15721 | 14942 ft | 393 kts | 153° |
| 2026-04-23 01:13 | 34.16179 | 114.17161 | 15527 ft | 397 kts | 154° |
| 2026-04-23 01:13 | 34.13694 | 114.18594 | 16093 ft | 402 kts | 154° |
| 2026-04-23 01:14 | 34.11148 | 114.20060 | 16660 ft | 406 kts | 154° |
| 2026-04-23 01:14 | 34.08612 | 114.21519 | 17211 ft | 410 kts | 155° |
| 2026-04-23 01:14 | 34.06016 | 114.23013 | 17758 ft | 414 kts | 155° |
| 2026-04-23 01:14 | 34.03421 | 114.24503 | 18279 ft | 418 kts | 155° |
| 2026-04-23 01:15 | 34.00765 | 114.26028 | 18786 ft | 422 kts | 156° |
| 2026-04-23 01:15 | 33.98127 | 114.27539 | 19272 ft | 426 kts | 156° |
| 2026-04-23 01:15 | 33.95434 | 114.29079 | 19764 ft | 429 kts | 156° |
| 2026-04-23 01:15 | 33.92719 | 114.30634 | 20248 ft | 433 kts | 156° |
| 2026-04-23 01:16 | 33.89983 | 114.32198 | 20727 ft | 436 kts | 156° |
| 2026-04-23 01:16 | 33.87176 | 114.33804 | 21218 ft | 440 kts | 157° |
| 2026-04-23 01:16 | 33.84386 | 114.35400 | 21681 ft | 443 kts | 157° |
| 2026-04-23 01:16 | 33.81600 | 114.36991 | 22147 ft | 446 kts | 157° |
| 2026-04-23 01:17 | 33.78803 | 114.38587 | 22605 ft | 449 kts | 157° |
| 2026-04-23 01:17 | 33.75985 | 114.40195 | 23046 ft | 452 kts | 158° |
| 2026-04-23 01:17 | 33.73105 | 114.41835 | 23473 ft | 455 kts | 158° |
| 2026-04-23 01:17 | 33.70233 | 114.43473 | 23896 ft | 458 kts | 158° |
| 2026-04-23 01:18 | 33.68011 | 114.44739 | 24206 ft | 460 kts | 159° |
| 2026-04-23 01:18 | 33.65097 | 114.46395 | 24604 ft | 463 kts | 159° |
| 2026-04-23 01:18 | 33.62193 | 114.48047 | 24998 ft | 466 kts | 159° |
| 2026-04-23 01:18 | 33.59262 | 114.49714 | 25386 ft | 468 kts | 160° |
| 2026-04-23 01:19 | 33.56305 | 114.51392 | 25775 ft | 470 kts | 160° |
| 2026-04-23 01:19 | 33.53354 | 114.53065 | 26117 ft | 473 kts | 161° |
| 2026-04-23 01:19 | 33.50381 | 114.54748 | 26469 ft | 475 kts | 161° |
| 2026-04-23 01:19 | 33.47368 | 114.56452 | 26782 ft | 478 kts | 161° |
| 2026-04-23 01:20 | 33.44342 | 114.58162 | 27128 ft | 480 kts | 161° |
| 2026-04-23 01:20 | 33.41353 | 114.59854 | 27419 ft | 482 kts | 162° |
| 2026-04-23 01:20 | 33.38308 | 114.61575 | 27606 ft | 486 kts | 163° |
| 2026-04-23 01:20 | 33.35245 | 114.63300 | 27923 ft | 488 kts | 162° |
| 2026-04-23 01:21 | 33.32177 | 114.65028 | 28362 ft | 485 kts | 163° |
| 2026-04-23 01:21 | 33.29122 | 114.66760 | 28809 ft | 481 kts | 165° |
| 2026-04-23 01:21 | 33.26101 | 114.68456 | 29167 ft | 476 kts | 167° |
| 2026-04-23 01:21 | 33.23048 | 114.69801 | 29418 ft | 465 kts | 175° |
| 2026-04-23 01:22 | 33.19928 | 114.70653 | 29663 ft | 454 kts | 182° |
| 2026-04-23 01:22 | 33.16835 | 114.71021 | 29882 ft | 443 kts | 190° |
| 2026-04-23 01:22 | 33.13767 | 114.70943 | 30267 ft | 431 kts | 195° |
| 2026-04-23 01:22 | 33.10794 | 114.70659 | 30642 ft | 428 kts | 197° |
| 2026-04-23 01:23 | 33.07819 | 114.70348 | 30932 ft | 426 kts | 197° |
| 2026-04-23 01:23 | 33.04875 | 114.70041 | 31324 ft | 423 kts | 197° |
| 2026-04-23 01:23 | 33.01962 | 114.69746 | 31714 ft | 420 kts | 197° |
| 2026-04-23 01:23 | 32.99060 | 114.69453 | 31994 ft | 420 kts | 197° |
| 2026-04-23 01:24 | 32.96119 | 114.69157 | 32273 ft | 418 kts | 197° |
| 2026-04-23 01:24 | 32.93240 | 114.68870 | 32530 ft | 418 kts | 197° |
| 2026-04-23 01:24 | 32.90326 | 114.68582 | 32750 ft | 418 kts | 197° |
| 2026-04-23 01:24 | 32.87408 | 114.68298 | 33046 ft | 417 kts | 197° |
| 2026-04-23 01:25 | 32.84506 | 114.68024 | 33303 ft | 417 kts | 197° |
| 2026-04-23 01:25 | 32.81610 | 114.67753 | 33532 ft | 417 kts | 197° |
| 2026-04-23 01:25 | 32.78711 | 114.67481 | 33839 ft | 414 kts | 196° |
| 2026-04-23 01:25 | 32.75867 | 114.67214 | 34112 ft | 412 kts | 197° |
| 2026-04-23 01:26 | 32.73003 | 114.66945 | 34231 ft | 414 kts | 197° |
| 2026-04-23 01:26 | 32.70099 | 114.66670 | 34321 ft | 416 kts | 197° |
| 2026-04-23 01:26 | 32.67223 | 114.66396 | 34466 ft | 417 kts | 196° |
| 2026-04-23 01:26 | 32.64324 | 114.66122 | 34633 ft | 417 kts | 197° |
| 2026-04-23 01:27 | 32.61412 | 114.65849 | 34816 ft | 417 kts | 196° |
| 2026-04-23 01:27 | 32.58534 | 114.65575 | 34957 ft | 417 kts | 196° |
| 2026-04-23 01:27 | 32.55636 | 114.65304 | 35124 ft | 417 kts | 196° |
| 2026-04-23 01:27 | 32.52755 | 114.65034 | 35248 ft | 418 kts | 196° |
| 2026-04-23 01:28 | 32.49834 | 114.64758 | 35424 ft | 417 kts | 196° |
| 2026-04-23 01:28 | 32.46951 | 114.64485 | 35569 ft | 418 kts | 196° |
| 2026-04-23 01:28 | 32.44059 | 114.64213 | 35703 ft | 418 kts | 196° |
| 2026-04-23 01:28 | 32.41162 | 114.63943 | 35916 ft | 417 kts | 196° |
| 2026-04-23 01:29 | 32.38250 | 114.63671 | 36052 ft | 418 kts | 196° |
| 2026-04-23 01:29 | 32.35336 | 114.63389 | 36146 ft | 419 kts | 196° |
| 2026-04-23 01:29 | 32.32444 | 114.63107 | 36293 ft | 420 kts | 196° |
| 2026-04-23 01:29 | 32.29500 | 114.62820 | 36397 ft | 421 kts | 196° |
| 2026-04-23 01:30 | 32.23658 | 114.62252 | 36623 ft | 422 kts | 196° |
| 2026-04-23 01:30 | 32.20760 | 114.61974 | 36778 ft | 422 kts | 196° |
| 2026-04-23 01:30 | 32.17820 | 114.61687 | 36827 ft | 424 kts | 196° |
| 2026-04-23 01:31 | 32.11925 | 114.61114 | 37026 ft | 425 kts | 196° |
| 2026-04-23 01:31 | 32.06009 | 114.60539 | 37137 ft | 428 kts | 196° |
| 2026-04-23 01:32 | 32.00020 | 114.59957 | 37217 ft | 431 kts | 195° |
| 2026-04-23 01:32 | 31.97047 | 114.59673 | 37320 ft | 431 kts | 195° |
| 2026-04-23 01:32 | 31.94074 | 114.59386 | 37468 ft | 429 kts | 196° |
| 2026-04-23 01:33 | 31.88085 | 114.58808 | 37544 ft | 431 kts | 196° |
| 2026-04-23 01:33 | 31.82060 | 114.58222 | 37716 ft | 431 kts | 195° |
| 2026-04-23 01:34 | 31.79097 | 114.57938 | 37823 ft | 431 kts | 195° |
| 2026-04-23 01:34 | 31.76113 | 114.57651 | 37831 ft | 432 kts | 195° |
| 2026-04-23 01:34 | 31.70077 | 114.57069 | 38008 ft | 431 kts | 195° |
| 2026-04-23 01:35 | 31.64110 | 114.56493 | 38064 ft | 433 kts | 195° |
| 2026-04-23 01:35 | 31.58088 | 114.55919 | 38136 ft | 434 kts | 195° |
| 2026-04-23 01:36 | 31.52038 | 114.55345 | 38139 ft | 435 kts | 195° |
| 2026-04-23 01:36 | 31.45986 | 114.54766 | 38137 ft | 433 kts | 195° |
| 2026-04-23 01:37 | 31.39922 | 114.54188 | 38135 ft | 433 kts | 195° |
| 2026-04-23 01:37 | 31.33893 | 114.53612 | 38136 ft | 433 kts | 195° |
| 2026-04-23 01:38 | 31.27909 | 114.52969 | 38134 ft | 427 kts | 199° |
| 2026-04-23 01:38 | 31.22221 | 114.51314 | 38134 ft | 414 kts | 210° |
| 2026-04-23 01:39 | 31.16974 | 114.48607 | 38136 ft | 407 kts | 214° |
| 2026-04-23 01:39 | 31.11839 | 114.45753 | 38130 ft | 407 kts | 214° |
| 2026-04-23 01:40 | 31.06731 | 114.42915 | 38128 ft | 407 kts | 215° |
| 2026-04-23 01:40 | 31.01594 | 114.40060 | 38138 ft | 407 kts | 215° |
| 2026-04-23 01:41 | 30.96428 | 114.37196 | 38134 ft | 407 kts | 214° |
| 2026-04-23 01:41 | 30.91272 | 114.34360 | 38148 ft | 408 kts | 213° |
| 2026-04-23 01:42 | 30.86353 | 114.31155 | 38140 ft | 397 kts | 224° |
| 2026-04-23 01:42 | 30.82288 | 114.26959 | 38142 ft | 387 kts | 233° |
| 2026-04-23 01:43 | 30.79071 | 114.21974 | 38142 ft | 382 kts | 241° |
| 2026-04-23 01:43 | 30.76183 | 114.16788 | 38142 ft | 381 kts | 242° |
| 2026-04-23 01:44 | 30.73318 | 114.11580 | 38140 ft | 380 kts | 242° |
| 2026-04-23 01:44 | 30.70461 | 114.06387 | 38143 ft | 381 kts | 242° |
| 2026-04-23 01:45 | 30.67623 | 114.01222 | 38137 ft | 380 kts | 241° |
| 2026-04-23 01:45 | 30.64767 | 113.96046 | 38140 ft | 380 kts | 242° |
| 2026-04-23 01:46 | 30.61908 | 113.90868 | 38140 ft | 379 kts | 242° |
| 2026-04-23 01:46 | 30.59044 | 113.85689 | 38141 ft | 380 kts | 242° |
| 2026-04-23 01:47 | 30.56170 | 113.80498 | 38139 ft | 380 kts | 242° |
| 2026-04-23 01:47 | 30.53293 | 113.75318 | 38138 ft | 380 kts | 242° |
| 2026-04-23 01:48 | 30.50438 | 113.70172 | 38135 ft | 380 kts | 242° |
| 2026-04-23 01:48 | 30.47562 | 113.65001 | 38136 ft | 380 kts | 242° |
| 2026-04-23 01:49 | 30.44697 | 113.59846 | 38134 ft | 380 kts | 242° |
| 2026-04-23 01:49 | 30.41830 | 113.54698 | 38132 ft | 380 kts | 242° |
| 2026-04-23 01:50 | 30.38954 | 113.49545 | 38135 ft | 380 kts | 242° |
| 2026-04-23 01:50 | 30.36089 | 113.44407 | 38131 ft | 379 kts | 242° |
| 2026-04-23 01:51 | 30.33212 | 113.39258 | 38129 ft | 380 kts | 242° |
| 2026-04-23 01:51 | 30.30321 | 113.34090 | 38129 ft | 379 kts | 242° |
| 2026-04-23 01:52 | 30.27448 | 113.28957 | 38126 ft | 379 kts | 242° |
| 2026-04-23 01:52 | 30.24574 | 113.23827 | 38128 ft | 379 kts | 242° |
| 2026-04-23 01:53 | 30.21709 | 113.18726 | 38124 ft | 379 kts | 242° |
| 2026-04-23 01:53 | 30.18858 | 113.13577 | 38120 ft | 378 kts | 242° |
| 2026-04-23 01:54 | 30.16043 | 113.08461 | 38122 ft | 377 kts | 242° |
| 2026-04-23 01:54 | 30.13205 | 113.03320 | 38123 ft | 377 kts | 242° |
| 2026-04-23 01:55 | 30.10377 | 112.98190 | 38120 ft | 377 kts | 242° |
| 2026-04-23 01:55 | 30.07553 | 112.93078 | 38125 ft | 377 kts | 242° |
| 2026-04-23 01:56 | 30.04722 | 112.87962 | 38119 ft | 377 kts | 242° |
| 2026-04-23 01:56 | 30.01901 | 112.82871 | 38121 ft | 377 kts | 242° |
| 2026-04-23 01:57 | 29.99074 | 112.77773 | 38114 ft | 376 kts | 243° |
| 2026-04-23 01:57 | 29.96233 | 112.72659 | 38118 ft | 376 kts | 243° |
| 2026-04-23 01:58 | 29.93407 | 112.67584 | 38121 ft | 377 kts | 243° |
| 2026-04-23 01:58 | 29.90577 | 112.62491 | 38117 ft | 377 kts | 242° |
| 2026-04-23 01:59 | 29.87714 | 112.57356 | 38119 ft | 377 kts | 243° |
| 2026-04-23 01:59 | 29.84903 | 112.52314 | 38118 ft | 376 kts | 243° |
| 2026-04-23 02:00 | 29.82064 | 112.47234 | 38117 ft | 376 kts | 243° |
| 2026-04-23 02:00 | 29.79230 | 112.42157 | 38120 ft | 375 kts | 243° |
| 2026-04-23 02:01 | 29.76395 | 112.37092 | 38120 ft | 375 kts | 243° |
| 2026-04-23 02:01 | 29.73567 | 112.32051 | 38119 ft | 376 kts | 242° |
| 2026-04-23 02:02 | 29.70719 | 112.27024 | 38122 ft | 375 kts | 242° |
| 2026-04-23 02:02 | 29.67866 | 112.21986 | 38119 ft | 375 kts | 242° |
| 2026-04-23 02:03 | 29.65012 | 112.16956 | 38120 ft | 375 kts | 242° |
| 2026-04-23 02:03 | 29.62166 | 112.11936 | 38120 ft | 374 kts | 242° |
| 2026-04-23 02:04 | 29.59317 | 112.06915 | 38124 ft | 374 kts | 242° |
| 2026-04-23 02:04 | 29.56458 | 112.01886 | 38127 ft | 373 kts | 242° |
| 2026-04-23 02:05 | 29.53618 | 111.96897 | 38131 ft | 373 kts | 242° |
| 2026-04-23 02:05 | 29.50785 | 111.91918 | 38128 ft | 373 kts | 242° |
| 2026-04-23 02:06 | 29.47941 | 111.86930 | 38129 ft | 373 kts | 243° |
| 2026-04-23 02:06 | 29.45104 | 111.81960 | 38138 ft | 371 kts | 242° |
| 2026-04-23 02:07 | 29.42271 | 111.76997 | 38145 ft | 371 kts | 243° |
| 2026-04-23 02:07 | 29.39423 | 111.72025 | 38142 ft | 372 kts | 242° |
| 2026-04-23 02:08 | 29.36690 | 111.67002 | 38140 ft | 368 kts | 246° |
| 2026-04-23 02:08 | 29.34360 | 111.61792 | 38143 ft | 365 kts | 250° |
| 2026-04-23 02:09 | 29.32415 | 111.56439 | 38145 ft | 364 kts | 251° |
| 2026-04-23 02:09 | 29.30528 | 111.51053 | 38142 ft | 364 kts | 251° |
| 2026-04-23 02:10 | 29.28638 | 111.45655 | 38143 ft | 363 kts | 252° |
| 2026-04-23 02:10 | 29.26770 | 111.40308 | 38145 ft | 363 kts | 252° |
| 2026-04-23 02:11 | 29.24880 | 111.34893 | 38146 ft | 363 kts | 252° |
| 2026-04-23 02:11 | 29.23000 | 111.29513 | 38140 ft | 363 kts | 252° |
| 2026-04-23 02:12 | 29.21112 | 111.24121 | 38145 ft | 363 kts | 252° |
| 2026-04-23 02:12 | 29.19242 | 111.18776 | 38144 ft | 361 kts | 251° |
| 2026-04-23 02:13 | 29.17366 | 111.13443 | 38143 ft | 363 kts | 252° |
| 2026-04-23 02:13 | 29.15493 | 111.08106 | 38147 ft | 362 kts | 252° |
| 2026-04-23 02:14 | 29.13601 | 111.02734 | 38153 ft | 362 kts | 252° |
| 2026-04-23 02:14 | 29.11720 | 110.97391 | 38149 ft | 362 kts | 252° |
| 2026-04-23 02:15 | 29.08893 | 110.89370 | 38152 ft | 361 kts | 252° |
| 2026-04-23 02:16 | 29.07002 | 110.84025 | 38149 ft | 361 kts | 252° |
| 2026-04-23 02:16 | 29.05127 | 110.78722 | 38149 ft | 361 kts | 252° |
| 2026-04-23 02:17 | 29.03243 | 110.73417 | 38148 ft | 361 kts | 252° |
| 2026-04-23 02:17 | 29.01370 | 110.68095 | 38152 ft | 360 kts | 252° |
| 2026-04-23 02:18 | 28.99501 | 110.62771 | 38151 ft | 360 kts | 253° |
| 2026-04-23 02:18 | 28.97638 | 110.57448 | 38153 ft | 359 kts | 252° |
| 2026-04-23 02:19 | 28.95781 | 110.52164 | 38153 ft | 358 kts | 252° |
| 2026-04-23 02:19 | 28.93923 | 110.46890 | 38154 ft | 358 kts | 252° |
| 2026-04-23 02:20 | 28.92061 | 110.41583 | 38153 ft | 358 kts | 252° |
| 2026-04-23 02:20 | 28.90198 | 110.36301 | 38150 ft | 358 kts | 252° |
| 2026-04-23 02:21 | 28.88315 | 110.30976 | 38147 ft | 359 kts | 252° |
| 2026-04-23 02:21 | 28.86439 | 110.25671 | 38146 ft | 359 kts | 252° |